sensor_id;sensor_type;location;lat;lon;timestamp;P1;durP1;ratioP1;P2;durP2;ratioP2
11767;SDS011;5941;57.652;12.514;2024-02-14T00:00:21;1999.90;;;999.90;;
11767;SDS011;5941;57.652;12.514;2024-02-14T00:02:49;1999.90;;;999.90;;
11767;SDS011;5941;57.652;12.514;2024-02-14T00:05:16;1999.90;;;999.90;;
11767;SDS011;5941;57.652;12.514;2024-02-14T00:07:43;1999.90;;;999.90;;
11767;SDS011;5941;57.652;12.514;2024-02-14T00:10:09;1999.90;;;999.90;;
11767;SDS011;5941;57.652;12.514;2024-02-14T00:12:35;1999.90;;;999.90;;
11767;SDS011;5941;57.652;12.514;2024-02-14T00:15:05;1999.90;;;999.90;;
11767;SDS011;5941;57.652;12.514;2024-02-14T00:17:32;1999.90;;;999.90;;
11767;SDS011;5941;57.652;12.514;2024-02-14T00:19:59;1999.90;;;999.90;;
11767;SDS011;5941;57.652;12.514;2024-02-14T00:22:25;1999.90;;;999.90;;
11767;SDS011;5941;57.652;12.514;2024-02-14T00:24:51;1999.90;;;999.90;;
11767;SDS011;5941;57.652;12.514;2024-02-14T00:27:17;1999.90;;;999.90;;
11767;SDS011;5941;57.652;12.514;2024-02-14T00:29:43;1999.90;;;999.90;;
11767;SDS011;5941;57.652;12.514;2024-02-14T00:32:12;1999.90;;;999.90;;
11767;SDS011;5941;57.652;12.514;2024-02-14T00:34:38;1999.90;;;999.90;;
11767;SDS011;5941;57.652;12.514;2024-02-14T00:37:04;1999.90;;;999.90;;
11767;SDS011;5941;57.652;12.514;2024-02-14T00:39:30;1999.90;;;999.90;;
11767;SDS011;5941;57.652;12.514;2024-02-14T00:41:56;1999.90;;;999.90;;
11767;SDS011;5941;57.652;12.514;2024-02-14T00:44:22;1999.90;;;999.90;;
11767;SDS011;5941;57.652;12.514;2024-02-14T00:46:48;1999.90;;;999.90;;
11767;SDS011;5941;57.652;12.514;2024-02-14T00:49:14;1999.90;;;999.90;;
11767;SDS011;5941;57.652;12.514;2024-02-14T00:51:40;1999.90;;;999.90;;
11767;SDS011;5941;57.652;12.514;2024-02-14T00:54:06;1999.90;;;999.90;;
11767;SDS011;5941;57.652;12.514;2024-02-14T00:56:33;1999.90;;;999.90;;
11767;SDS011;5941;57.652;12.514;2024-02-14T00:58:59;1999.90;;;999.90;;
11767;SDS011;5941;57.652;12.514;2024-02-14T01:01:25;1999.90;;;999.90;;
11767;SDS011;5941;57.652;12.514;2024-02-14T01:03:51;1999.90;;;999.90;;
11767;SDS011;5941;57.652;12.514;2024-02-14T01:06:17;1999.90;;;999.90;;
11767;SDS011;5941;57.652;12.514;2024-02-14T01:08:44;1999.90;;;999.90;;
11767;SDS011;5941;57.652;12.514;2024-02-14T01:11:11;1999.90;;;999.90;;
11767;SDS011;5941;57.652;12.514;2024-02-14T01:13:37;1999.90;;;999.90;;
11767;SDS011;5941;57.652;12.514;2024-02-14T01:16:03;1999.90;;;999.90;;
11767;SDS011;5941;57.652;12.514;2024-02-14T01:18:29;1999.90;;;999.90;;
11767;SDS011;5941;57.652;12.514;2024-02-14T01:20:55;1999.90;;;999.90;;
11767;SDS011;5941;57.652;12.514;2024-02-14T01:23:21;1999.90;;;999.90;;
11767;SDS011;5941;57.652;12.514;2024-02-14T01:25:48;1999.90;;;999.90;;
11767;SDS011;5941;57.652;12.514;2024-02-14T01:28:15;1999.90;;;999.90;;
11767;SDS011;5941;57.652;12.514;2024-02-14T01:30:42;1999.90;;;999.90;;
11767;SDS011;5941;57.652;12.514;2024-02-14T01:33:08;1999.90;;;999.90;;
11767;SDS011;5941;57.652;12.514;2024-02-14T01:35:34;1999.90;;;999.90;;
11767;SDS011;5941;57.652;12.514;2024-02-14T01:38:00;1999.90;;;999.90;;
11767;SDS011;5941;57.652;12.514;2024-02-14T01:40:27;1999.90;;;999.90;;
11767;SDS011;5941;57.652;12.514;2024-02-14T01:42:53;1999.90;;;999.90;;
11767;SDS011;5941;57.652;12.514;2024-02-14T01:45:20;1999.90;;;999.90;;
11767;SDS011;5941;57.652;12.514;2024-02-14T01:47:46;1999.90;;;999.90;;
11767;SDS011;5941;57.652;12.514;2024-02-14T01:50:12;1999.90;;;999.90;;
11767;SDS011;5941;57.652;12.514;2024-02-14T01:52:38;1999.90;;;999.90;;
11767;SDS011;5941;57.652;12.514;2024-02-14T01:55:05;1999.90;;;999.90;;
11767;SDS011;5941;57.652;12.514;2024-02-14T01:57:32;1999.90;;;999.90;;
11767;SDS011;5941;57.652;12.514;2024-02-14T01:59:59;1999.90;;;999.90;;
11767;SDS011;5941;57.652;12.514;2024-02-14T02:02:26;1999.90;;;999.90;;
11767;SDS011;5941;57.652;12.514;2024-02-14T02:04:52;1999.90;;;999.90;;
11767;SDS011;5941;57.652;12.514;2024-02-14T02:07:18;1999.90;;;999.90;;
11767;SDS011;5941;57.652;12.514;2024-02-14T02:09:45;1999.90;;;999.90;;
11767;SDS011;5941;57.652;12.514;2024-02-14T02:12:11;1999.90;;;999.90;;
11767;SDS011;5941;57.652;12.514;2024-02-14T02:14:37;738.97;;;700.57;;
11767;SDS011;5941;57.652;12.514;2024-02-14T02:17:05;749.77;;;708.13;;
11767;SDS011;5941;57.652;12.514;2024-02-14T02:19:33;1999.90;;;999.90;;
11767;SDS011;5941;57.652;12.514;2024-02-14T02:21:59;710.33;;;674.10;;
11767;SDS011;5941;57.652;12.514;2024-02-14T02:24:25;1165.00;;;804.80;;
11767;SDS011;5941;57.652;12.514;2024-02-14T02:26:51;1999.90;;;999.90;;
11767;SDS011;5941;57.652;12.514;2024-02-14T02:29:17;1999.90;;;999.90;;
11767;SDS011;5941;57.652;12.514;2024-02-14T02:31:44;1999.90;;;999.90;;
11767;SDS011;5941;57.652;12.514;2024-02-14T02:34:10;1999.90;;;999.90;;
11767;SDS011;5941;57.652;12.514;2024-02-14T02:36:36;1999.90;;;999.90;;
11767;SDS011;5941;57.652;12.514;2024-02-14T02:39:03;1999.90;;;999.90;;
11767;SDS011;5941;57.652;12.514;2024-02-14T02:41:29;1999.90;;;999.90;;
11767;SDS011;5941;57.652;12.514;2024-02-14T02:43:59;1999.90;;;999.90;;
11767;SDS011;5941;57.652;12.514;2024-02-14T02:46:26;1999.90;;;999.90;;
11767;SDS011;5941;57.652;12.514;2024-02-14T02:48:52;1999.90;;;999.90;;
11767;SDS011;5941;57.652;12.514;2024-02-14T02:51:23;1999.90;;;999.90;;
11767;SDS011;5941;57.652;12.514;2024-02-14T02:53:49;1999.90;;;999.90;;
11767;SDS011;5941;57.652;12.514;2024-02-14T02:56:17;1999.90;;;999.90;;
11767;SDS011;5941;57.652;12.514;2024-02-14T02:58:43;1999.90;;;999.90;;
11767;SDS011;5941;57.652;12.514;2024-02-14T03:01:09;1999.90;;;999.90;;
11767;SDS011;5941;57.652;12.514;2024-02-14T03:03:36;1999.90;;;999.90;;
11767;SDS011;5941;57.652;12.514;2024-02-14T03:06:03;1999.90;;;999.90;;
11767;SDS011;5941;57.652;12.514;2024-02-14T03:08:29;1999.90;;;999.90;;
11767;SDS011;5941;57.652;12.514;2024-02-14T03:10:56;750.37;;;710.57;;
11767;SDS011;5941;57.652;12.514;2024-02-14T03:13:25;755.53;;;715.37;;
11767;SDS011;5941;57.652;12.514;2024-02-14T03:15:54;741.97;;;703.27;;
11767;SDS011;5941;57.652;12.514;2024-02-14T03:18:22;695.30;;;660.40;;
11767;SDS011;5941;57.652;12.514;2024-02-14T03:20:48;558.27;;;534.03;;
11767;SDS011;5941;57.652;12.514;2024-02-14T03:23:15;439.97;;;422.00;;
11767;SDS011;5941;57.652;12.514;2024-02-14T03:25:41;368.77;;;354.47;;
11767;SDS011;5941;57.652;12.514;2024-02-14T03:28:07;387.30;;;372.07;;
11767;SDS011;5941;57.652;12.514;2024-02-14T03:30:37;375.20;;;360.43;;
11767;SDS011;5941;57.652;12.514;2024-02-14T03:33:04;421.17;;;404.17;;
11767;SDS011;5941;57.652;12.514;2024-02-14T03:35:30;568.87;;;543.47;;
11767;SDS011;5941;57.652;12.514;2024-02-14T03:37:56;1999.90;;;999.90;;
11767;SDS011;5941;57.652;12.514;2024-02-14T03:40:22;1999.90;;;999.90;;
11767;SDS011;5941;57.652;12.514;2024-02-14T03:42:49;1999.90;;;999.90;;
11767;SDS011;5941;57.652;12.514;2024-02-14T03:45:15;1999.90;;;999.90;;
11767;SDS011;5941;57.652;12.514;2024-02-14T03:47:41;1999.90;;;999.90;;
11767;SDS011;5941;57.652;12.514;2024-02-14T03:50:10;1999.90;;;999.90;;
11767;SDS011;5941;57.652;12.514;2024-02-14T03:52:36;1999.90;;;999.90;;
11767;SDS011;5941;57.652;12.514;2024-02-14T03:55:02;1999.90;;;999.90;;
11767;SDS011;5941;57.652;12.514;2024-02-14T03:57:28;1999.90;;;999.90;;
11767;SDS011;5941;57.652;12.514;2024-02-14T03:59:54;1999.90;;;999.90;;
11767;SDS011;5941;57.652;12.514;2024-02-14T04:02:21;1999.90;;;999.90;;
11767;SDS011;5941;57.652;12.514;2024-02-14T04:04:48;1999.90;;;999.90;;
11767;SDS011;5941;57.652;12.514;2024-02-14T04:07:14;1999.90;;;999.90;;
11767;SDS011;5941;57.652;12.514;2024-02-14T04:09:40;1999.90;;;999.90;;
11767;SDS011;5941;57.652;12.514;2024-02-14T04:12:06;1999.90;;;999.90;;
11767;SDS011;5941;57.652;12.514;2024-02-14T04:14:34;1999.90;;;999.90;;
11767;SDS011;5941;57.652;12.514;2024-02-14T04:17:01;1999.90;;;999.90;;
11767;SDS011;5941;57.652;12.514;2024-02-14T04:19:27;1581.93;;;901.40;;
11767;SDS011;5941;57.652;12.514;2024-02-14T04:21:53;1999.90;;;999.90;;
11767;SDS011;5941;57.652;12.514;2024-02-14T04:24:19;731.17;;;692.90;;
11767;SDS011;5941;57.652;12.514;2024-02-14T04:26:45;740.23;;;701.40;;
11767;SDS011;5941;57.652;12.514;2024-02-14T04:29:14;760.40;;;718.07;;
11767;SDS011;5941;57.652;12.514;2024-02-14T04:31:40;701.07;;;665.37;;
11767;SDS011;5941;57.652;12.514;2024-02-14T04:34:07;463.73;;;444.27;;
11767;SDS011;5941;57.652;12.514;2024-02-14T04:36:35;483.30;;;462.60;;
11767;SDS011;5941;57.652;12.514;2024-02-14T04:39:01;509.67;;;487.27;;
11767;SDS011;5941;57.652;12.514;2024-02-14T04:41:28;676.33;;;641.67;;
11767;SDS011;5941;57.652;12.514;2024-02-14T04:43:54;1164.23;;;803.53;;
11767;SDS011;5941;57.652;12.514;2024-02-14T04:46:20;1999.90;;;999.90;;
11767;SDS011;5941;57.652;12.514;2024-02-14T04:48:47;1999.90;;;999.90;;
11767;SDS011;5941;57.652;12.514;2024-02-14T04:51:13;1999.90;;;999.90;;
11767;SDS011;5941;57.652;12.514;2024-02-14T04:53:39;1999.90;;;999.90;;
11767;SDS011;5941;57.652;12.514;2024-02-14T04:56:05;1999.90;;;999.90;;
11767;SDS011;5941;57.652;12.514;2024-02-14T04:58:32;1999.90;;;999.90;;
11767;SDS011;5941;57.652;12.514;2024-02-14T05:00:58;1999.90;;;999.90;;
11767;SDS011;5941;57.652;12.514;2024-02-14T05:03:24;1999.90;;;999.90;;
11767;SDS011;5941;57.652;12.514;2024-02-14T05:05:51;1999.90;;;999.90;;
11767;SDS011;5941;57.652;12.514;2024-02-14T05:08:17;1999.90;;;999.90;;
11767;SDS011;5941;57.652;12.514;2024-02-14T05:10:43;1999.90;;;999.90;;
11767;SDS011;5941;57.652;12.514;2024-02-14T05:13:09;1999.90;;;999.90;;
11767;SDS011;5941;57.652;12.514;2024-02-14T05:15:35;1999.90;;;999.90;;
11767;SDS011;5941;57.652;12.514;2024-02-14T05:18:01;1999.90;;;999.90;;
11767;SDS011;5941;57.652;12.514;2024-02-14T05:20:27;1999.90;;;999.90;;
11767;SDS011;5941;57.652;12.514;2024-02-14T05:22:53;1999.90;;;999.90;;
11767;SDS011;5941;57.652;12.514;2024-02-14T05:25:19;1999.90;;;999.90;;
11767;SDS011;5941;57.652;12.514;2024-02-14T05:27:45;1999.90;;;999.90;;
11767;SDS011;5941;57.652;12.514;2024-02-14T05:30:12;1999.90;;;999.90;;
11767;SDS011;5941;57.652;12.514;2024-02-14T05:32:39;1999.90;;;999.90;;
11767;SDS011;5941;57.652;12.514;2024-02-14T05:35:05;1999.90;;;999.90;;
11767;SDS011;5941;57.652;12.514;2024-02-14T05:37:32;1999.90;;;999.90;;
11767;SDS011;5941;57.652;12.514;2024-02-14T05:39:59;1999.90;;;999.90;;
11767;SDS011;5941;57.652;12.514;2024-02-14T05:42:25;1999.90;;;999.90;;
11767;SDS011;5941;57.652;12.514;2024-02-14T05:44:51;1999.90;;;999.90;;
11767;SDS011;5941;57.652;12.514;2024-02-14T05:47:17;1999.90;;;999.90;;
11767;SDS011;5941;57.652;12.514;2024-02-14T05:49:44;1999.90;;;999.90;;
11767;SDS011;5941;57.652;12.514;2024-02-14T05:52:10;1999.90;;;999.90;;
11767;SDS011;5941;57.652;12.514;2024-02-14T05:54:36;1999.90;;;999.90;;
11767;SDS011;5941;57.652;12.514;2024-02-14T05:57:02;1999.90;;;999.90;;
11767;SDS011;5941;57.652;12.514;2024-02-14T05:59:29;1999.90;;;999.90;;
11767;SDS011;5941;57.652;12.514;2024-02-14T06:01:57;1999.90;;;999.90;;
11767;SDS011;5941;57.652;12.514;2024-02-14T06:04:23;1999.90;;;999.90;;
11767;SDS011;5941;57.652;12.514;2024-02-14T06:06:49;1999.90;;;999.90;;
11767;SDS011;5941;57.652;12.514;2024-02-14T06:09:15;1999.90;;;999.90;;
11767;SDS011;5941;57.652;12.514;2024-02-14T06:11:41;1999.90;;;999.90;;
11767;SDS011;5941;57.652;12.514;2024-02-14T06:14:09;1999.90;;;999.90;;
11767;SDS011;5941;57.652;12.514;2024-02-14T06:16:35;1999.90;;;999.90;;
11767;SDS011;5941;57.652;12.514;2024-02-14T06:19:01;1999.90;;;999.90;;
11767;SDS011;5941;57.652;12.514;2024-02-14T06:21:29;1999.90;;;999.90;;
11767;SDS011;5941;57.652;12.514;2024-02-14T06:23:55;1999.90;;;999.90;;
11767;SDS011;5941;57.652;12.514;2024-02-14T06:26:23;1999.90;;;999.90;;
11767;SDS011;5941;57.652;12.514;2024-02-14T06:28:49;1999.90;;;999.90;;
11767;SDS011;5941;57.652;12.514;2024-02-14T06:31:19;1999.90;;;999.90;;
11767;SDS011;5941;57.652;12.514;2024-02-14T06:33:46;1999.90;;;999.90;;
11767;SDS011;5941;57.652;12.514;2024-02-14T06:36:12;1999.90;;;999.90;;
11767;SDS011;5941;57.652;12.514;2024-02-14T06:38:38;1999.90;;;999.90;;
11767;SDS011;5941;57.652;12.514;2024-02-14T06:41:05;1178.50;;;816.93;;
11767;SDS011;5941;57.652;12.514;2024-02-14T06:43:31;798.83;;;753.47;;
11767;SDS011;5941;57.652;12.514;2024-02-14T06:45:57;1999.90;;;999.90;;
11767;SDS011;5941;57.652;12.514;2024-02-14T06:48:23;1999.90;;;999.90;;
11767;SDS011;5941;57.652;12.514;2024-02-14T06:50:50;1999.90;;;999.90;;
11767;SDS011;5941;57.652;12.514;2024-02-14T06:53:16;1999.90;;;999.90;;
11767;SDS011;5941;57.652;12.514;2024-02-14T06:55:42;1999.90;;;999.90;;
11767;SDS011;5941;57.652;12.514;2024-02-14T06:58:08;1999.90;;;999.90;;
11767;SDS011;5941;57.652;12.514;2024-02-14T07:00:34;1999.90;;;999.90;;
11767;SDS011;5941;57.652;12.514;2024-02-14T07:03:00;1999.90;;;999.90;;
11767;SDS011;5941;57.652;12.514;2024-02-14T07:05:26;1181.27;;;819.23;;
11767;SDS011;5941;57.652;12.514;2024-02-14T07:07:54;1999.90;;;999.90;;
11767;SDS011;5941;57.652;12.514;2024-02-14T07:10:20;1999.90;;;999.90;;
11767;SDS011;5941;57.652;12.514;2024-02-14T07:12:46;1999.90;;;999.90;;
11767;SDS011;5941;57.652;12.514;2024-02-14T07:15:12;1999.90;;;999.90;;
11767;SDS011;5941;57.652;12.514;2024-02-14T07:17:38;1999.90;;;999.90;;
11767;SDS011;5941;57.652;12.514;2024-02-14T07:20:05;1999.90;;;999.90;;
11767;SDS011;5941;57.652;12.514;2024-02-14T07:22:33;1999.90;;;999.90;;
11767;SDS011;5941;57.652;12.514;2024-02-14T07:24:59;1999.90;;;999.90;;
11767;SDS011;5941;57.652;12.514;2024-02-14T07:27:25;1999.90;;;999.90;;
11767;SDS011;5941;57.652;12.514;2024-02-14T07:29:52;1999.90;;;999.90;;
11767;SDS011;5941;57.652;12.514;2024-02-14T07:32:18;1999.90;;;999.90;;
11767;SDS011;5941;57.652;12.514;2024-02-14T07:34:44;1999.90;;;999.90;;
11767;SDS011;5941;57.652;12.514;2024-02-14T07:37:10;1999.90;;;999.90;;
11767;SDS011;5941;57.652;12.514;2024-02-14T07:39:35;1999.90;;;999.90;;
11767;SDS011;5941;57.652;12.514;2024-02-14T07:42:02;1999.90;;;999.90;;
11767;SDS011;5941;57.652;12.514;2024-02-14T07:44:28;1999.90;;;999.90;;
11767;SDS011;5941;57.652;12.514;2024-02-14T07:46:54;1999.90;;;999.90;;
11767;SDS011;5941;57.652;12.514;2024-02-14T07:49:20;1999.90;;;999.90;;
11767;SDS011;5941;57.652;12.514;2024-02-14T07:51:46;1999.90;;;999.90;;
11767;SDS011;5941;57.652;12.514;2024-02-14T07:54:13;1999.90;;;999.90;;
11767;SDS011;5941;57.652;12.514;2024-02-14T07:56:39;1999.90;;;999.90;;
11767;SDS011;5941;57.652;12.514;2024-02-14T07:59:05;1999.90;;;999.90;;
11767;SDS011;5941;57.652;12.514;2024-02-14T08:01:31;1999.90;;;999.90;;
11767;SDS011;5941;57.652;12.514;2024-02-14T08:03:57;1999.90;;;999.90;;
11767;SDS011;5941;57.652;12.514;2024-02-14T08:06:23;1999.90;;;999.90;;
11767;SDS011;5941;57.652;12.514;2024-02-14T08:08:49;1999.90;;;999.90;;
11767;SDS011;5941;57.652;12.514;2024-02-14T08:11:19;1999.90;;;999.90;;
11767;SDS011;5941;57.652;12.514;2024-02-14T08:13:45;1999.90;;;999.90;;
11767;SDS011;5941;57.652;12.514;2024-02-14T08:16:11;1999.90;;;999.90;;
11767;SDS011;5941;57.652;12.514;2024-02-14T08:18:37;1999.90;;;999.90;;
11767;SDS011;5941;57.652;12.514;2024-02-14T08:21:04;1999.90;;;999.90;;
11767;SDS011;5941;57.652;12.514;2024-02-14T08:23:31;1999.90;;;999.90;;
11767;SDS011;5941;57.652;12.514;2024-02-14T08:25:57;1999.90;;;999.90;;
11767;SDS011;5941;57.652;12.514;2024-02-14T08:28:23;1999.90;;;999.90;;
11767;SDS011;5941;57.652;12.514;2024-02-14T08:30:49;1999.90;;;999.90;;
11767;SDS011;5941;57.652;12.514;2024-02-14T08:33:15;1999.90;;;999.90;;
11767;SDS011;5941;57.652;12.514;2024-02-14T08:35:41;1999.90;;;999.90;;
11767;SDS011;5941;57.652;12.514;2024-02-14T08:38:07;1999.90;;;999.90;;
11767;SDS011;5941;57.652;12.514;2024-02-14T08:40:33;1999.90;;;999.90;;
11767;SDS011;5941;57.652;12.514;2024-02-14T08:42:59;1999.90;;;999.90;;
11767;SDS011;5941;57.652;12.514;2024-02-14T08:45:26;1999.90;;;999.90;;
11767;SDS011;5941;57.652;12.514;2024-02-14T08:47:54;1999.90;;;999.90;;
11767;SDS011;5941;57.652;12.514;2024-02-14T08:50:20;1999.90;;;999.90;;
11767;SDS011;5941;57.652;12.514;2024-02-14T08:52:46;1999.90;;;999.90;;
11767;SDS011;5941;57.652;12.514;2024-02-14T08:55:12;1999.90;;;999.90;;
11767;SDS011;5941;57.652;12.514;2024-02-14T08:57:42;1999.90;;;999.90;;
11767;SDS011;5941;57.652;12.514;2024-02-14T09:00:09;1999.90;;;999.90;;
11767;SDS011;5941;57.652;12.514;2024-02-14T09:02:38;1999.90;;;999.90;;
11767;SDS011;5941;57.652;12.514;2024-02-14T09:05:04;1999.90;;;999.90;;
11767;SDS011;5941;57.652;12.514;2024-02-14T09:07:30;1999.90;;;999.90;;
11767;SDS011;5941;57.652;12.514;2024-02-14T09:09:58;1999.90;;;999.90;;
11767;SDS011;5941;57.652;12.514;2024-02-14T09:12:24;1999.90;;;999.90;;
11767;SDS011;5941;57.652;12.514;2024-02-14T09:14:50;1999.90;;;999.90;;
11767;SDS011;5941;57.652;12.514;2024-02-14T09:17:16;1999.90;;;999.90;;
11767;SDS011;5941;57.652;12.514;2024-02-14T09:19:42;1999.90;;;999.90;;
11767;SDS011;5941;57.652;12.514;2024-02-14T09:22:08;1999.90;;;999.90;;
11767;SDS011;5941;57.652;12.514;2024-02-14T09:24:34;1999.90;;;999.90;;
11767;SDS011;5941;57.652;12.514;2024-02-14T09:27:00;1999.90;;;999.90;;
11767;SDS011;5941;57.652;12.514;2024-02-14T09:29:27;1999.90;;;999.90;;
11767;SDS011;5941;57.652;12.514;2024-02-14T09:31:53;1999.90;;;999.90;;
11767;SDS011;5941;57.652;12.514;2024-02-14T09:34:19;1999.90;;;999.90;;
11767;SDS011;5941;57.652;12.514;2024-02-14T09:36:49;1999.90;;;999.90;;
11767;SDS011;5941;57.652;12.514;2024-02-14T09:39:17;1999.90;;;999.90;;
11767;SDS011;5941;57.652;12.514;2024-02-14T09:41:43;1999.90;;;999.90;;
11767;SDS011;5941;57.652;12.514;2024-02-14T09:44:12;1999.90;;;999.90;;
11767;SDS011;5941;57.652;12.514;2024-02-14T09:46:38;1999.90;;;999.90;;
11767;SDS011;5941;57.652;12.514;2024-02-14T09:49:04;1999.90;;;999.90;;
11767;SDS011;5941;57.652;12.514;2024-02-14T09:51:31;1999.90;;;999.90;;
11767;SDS011;5941;57.652;12.514;2024-02-14T09:53:59;1999.90;;;999.90;;
11767;SDS011;5941;57.652;12.514;2024-02-14T09:56:26;1999.90;;;999.90;;
11767;SDS011;5941;57.652;12.514;2024-02-14T09:58:52;1999.90;;;999.90;;
11767;SDS011;5941;57.652;12.514;2024-02-14T10:01:22;1999.90;;;999.90;;
11767;SDS011;5941;57.652;12.514;2024-02-14T10:03:49;1999.90;;;999.90;;
11767;SDS011;5941;57.652;12.514;2024-02-14T10:06:16;1999.90;;;999.90;;
11767;SDS011;5941;57.652;12.514;2024-02-14T10:08:43;1999.90;;;999.90;;
11767;SDS011;5941;57.652;12.514;2024-02-14T10:11:09;1999.90;;;999.90;;
11767;SDS011;5941;57.652;12.514;2024-02-14T10:13:36;1999.90;;;999.90;;
11767;SDS011;5941;57.652;12.514;2024-02-14T10:16:02;1999.90;;;999.90;;
11767;SDS011;5941;57.652;12.514;2024-02-14T10:18:28;1153.97;;;790.30;;
11767;SDS011;5941;57.652;12.514;2024-02-14T10:20:57;1200.83;;;836.37;;
11767;SDS011;5941;57.652;12.514;2024-02-14T10:23:23;1999.90;;;999.90;;
11767;SDS011;5941;57.652;12.514;2024-02-14T10:25:50;820.70;;;773.77;;
11767;SDS011;5941;57.652;12.514;2024-02-14T10:28:16;777.97;;;735.30;;
11767;SDS011;5941;57.652;12.514;2024-02-14T10:30:45;844.73;;;794.53;;
11767;SDS011;5941;57.652;12.514;2024-02-14T10:33:11;1235.07;;;867.27;;
11767;SDS011;5941;57.652;12.514;2024-02-14T10:35:37;1225.77;;;859.20;;
11767;SDS011;5941;57.652;12.514;2024-02-14T10:38:06;835.53;;;786.80;;
11767;SDS011;5941;57.652;12.514;2024-02-14T10:40:34;822.00;;;774.67;;
11767;SDS011;5941;57.652;12.514;2024-02-14T10:43:01;794.93;;;751.00;;
11767;SDS011;5941;57.652;12.514;2024-02-14T10:45:27;764.03;;;723.50;;
11767;SDS011;5941;57.652;12.514;2024-02-14T10:47:53;742.17;;;702.47;;
11767;SDS011;5941;57.652;12.514;2024-02-14T10:50:22;747.63;;;708.47;;
11767;SDS011;5941;57.652;12.514;2024-02-14T10:52:48;734.47;;;695.70;;
11767;SDS011;5941;57.652;12.514;2024-02-14T10:55:15;621.97;;;593.20;;
11767;SDS011;5941;57.652;12.514;2024-02-14T10:57:42;579.07;;;553.27;;
11767;SDS011;5941;57.652;12.514;2024-02-14T11:00:10;429.47;;;412.00;;
11767;SDS011;5941;57.652;12.514;2024-02-14T11:02:39;403.73;;;387.53;;
11767;SDS011;5941;57.652;12.514;2024-02-14T11:05:05;613.73;;;584.10;;
11767;SDS011;5941;57.652;12.514;2024-02-14T11:07:32;1999.90;;;999.90;;
11767;SDS011;5941;57.652;12.514;2024-02-14T11:10:04;1999.90;;;999.90;;
11767;SDS011;5941;57.652;12.514;2024-02-14T11:12:35;1999.90;;;999.90;;
11767;SDS011;5941;57.652;12.514;2024-02-14T11:15:08;1999.90;;;999.90;;
11767;SDS011;5941;57.652;12.514;2024-02-14T11:17:34;1999.90;;;999.90;;
11767;SDS011;5941;57.652;12.514;2024-02-14T11:20:10;1999.90;;;999.90;;
11767;SDS011;5941;57.652;12.514;2024-02-14T11:22:36;1999.90;;;999.90;;
11767;SDS011;5941;57.652;12.514;2024-02-14T11:25:06;1999.90;;;999.90;;
11767;SDS011;5941;57.652;12.514;2024-02-14T11:27:32;1999.90;;;999.90;;
11767;SDS011;5941;57.652;12.514;2024-02-14T11:29:59;1999.90;;;999.90;;
11767;SDS011;5941;57.652;12.514;2024-02-14T11:32:27;1999.90;;;999.90;;
11767;SDS011;5941;57.652;12.514;2024-02-14T11:34:53;1999.90;;;999.90;;
11767;SDS011;5941;57.652;12.514;2024-02-14T11:37:21;1999.90;;;999.90;;
11767;SDS011;5941;57.652;12.514;2024-02-14T11:39:52;1999.90;;;999.90;;
11767;SDS011;5941;57.652;12.514;2024-02-14T11:42:20;1999.90;;;999.90;;
11767;SDS011;5941;57.652;12.514;2024-02-14T11:44:47;1999.90;;;999.90;;
11767;SDS011;5941;57.652;12.514;2024-02-14T11:47:13;1999.90;;;999.90;;
11767;SDS011;5941;57.652;12.514;2024-02-14T11:49:39;1999.90;;;999.90;;
11767;SDS011;5941;57.652;12.514;2024-02-14T11:52:09;1999.90;;;999.90;;
11767;SDS011;5941;57.652;12.514;2024-02-14T11:54:35;1205.20;;;840.17;;
11767;SDS011;5941;57.652;12.514;2024-02-14T11:57:01;1999.90;;;999.90;;
11767;SDS011;5941;57.652;12.514;2024-02-14T11:59:27;1999.90;;;999.90;;
11767;SDS011;5941;57.652;12.514;2024-02-14T12:01:53;1210.03;;;844.47;;
11767;SDS011;5941;57.652;12.514;2024-02-14T12:04:22;790.90;;;747.67;;
11767;SDS011;5941;57.652;12.514;2024-02-14T12:06:49;693.63;;;659.73;;
11767;SDS011;5941;57.652;12.514;2024-02-14T12:09:15;667.00;;;634.13;;
11767;SDS011;5941;57.652;12.514;2024-02-14T12:11:41;1191.50;;;828.17;;
11767;SDS011;5941;57.652;12.514;2024-02-14T12:14:08;1999.90;;;999.90;;
11767;SDS011;5941;57.652;12.514;2024-02-14T12:16:35;1999.90;;;999.90;;
11767;SDS011;5941;57.652;12.514;2024-02-14T12:19:05;1999.90;;;999.90;;
11767;SDS011;5941;57.652;12.514;2024-02-14T12:21:34;1999.90;;;999.90;;
11767;SDS011;5941;57.652;12.514;2024-02-14T12:24:00;1999.90;;;999.90;;
11767;SDS011;5941;57.652;12.514;2024-02-14T12:26:26;1999.90;;;999.90;;
11767;SDS011;5941;57.652;12.514;2024-02-14T12:28:52;1999.90;;;999.90;;
11767;SDS011;5941;57.652;12.514;2024-02-14T12:31:22;1999.90;;;999.90;;
11767;SDS011;5941;57.652;12.514;2024-02-14T12:33:48;1999.90;;;999.90;;
11767;SDS011;5941;57.652;12.514;2024-02-14T12:36:14;1169.83;;;804.77;;
11767;SDS011;5941;57.652;12.514;2024-02-14T12:38:40;1999.90;;;999.90;;
11767;SDS011;5941;57.652;12.514;2024-02-14T12:41:06;1999.90;;;999.90;;
11767;SDS011;5941;57.652;12.514;2024-02-14T12:43:32;1999.90;;;999.90;;
11767;SDS011;5941;57.652;12.514;2024-02-14T12:45:58;1999.90;;;999.90;;
11767;SDS011;5941;57.652;12.514;2024-02-14T12:48:24;1999.90;;;999.90;;
11767;SDS011;5941;57.652;12.514;2024-02-14T12:50:51;1999.90;;;999.90;;
11767;SDS011;5941;57.652;12.514;2024-02-14T12:53:17;1999.90;;;999.90;;
11767;SDS011;5941;57.652;12.514;2024-02-14T12:55:44;1999.90;;;999.90;;
11767;SDS011;5941;57.652;12.514;2024-02-14T12:58:11;807.60;;;762.53;;
11767;SDS011;5941;57.652;12.514;2024-02-14T13:00:37;1212.93;;;847.60;;
11767;SDS011;5941;57.652;12.514;2024-02-14T13:03:03;1215.70;;;850.13;;
11767;SDS011;5941;57.652;12.514;2024-02-14T13:05:29;806.87;;;761.07;;
11767;SDS011;5941;57.652;12.514;2024-02-14T13:07:55;771.67;;;730.47;;
11767;SDS011;5941;57.652;12.514;2024-02-14T13:10:21;751.60;;;711.80;;
11767;SDS011;5941;57.652;12.514;2024-02-14T13:12:48;669.17;;;637.10;;
11767;SDS011;5941;57.652;12.514;2024-02-14T13:15:14;677.17;;;643.47;;
11767;SDS011;5941;57.652;12.514;2024-02-14T13:17:41;735.00;;;695.90;;
11767;SDS011;5941;57.652;12.514;2024-02-14T13:20:08;751.47;;;711.90;;
11767;SDS011;5941;57.652;12.514;2024-02-14T13:22:34;743.23;;;704.37;;
11767;SDS011;5941;57.652;12.514;2024-02-14T13:25:01;777.73;;;734.97;;
11767;SDS011;5941;57.652;12.514;2024-02-14T13:27:27;781.43;;;738.30;;
11767;SDS011;5941;57.652;12.514;2024-02-14T13:29:53;775.30;;;733.27;;
11767;SDS011;5941;57.652;12.514;2024-02-14T13:32:19;737.57;;;698.37;;
11767;SDS011;5941;57.652;12.514;2024-02-14T13:34:45;777.10;;;734.50;;
11767;SDS011;5941;57.652;12.514;2024-02-14T13:37:13;770.57;;;729.00;;
11767;SDS011;5941;57.652;12.514;2024-02-14T13:39:40;709.67;;;673.27;;
11767;SDS011;5941;57.652;12.514;2024-02-14T13:42:06;713.70;;;677.03;;